Time;durP1;ratioP1;P1;durP2;ratioP2;P2;SDS_P1;SDS_P2;PMS_P1;PMS_P2;Temp;Humidity;BMP_temperature;BMP_pressure;BME280_temperature;BME280_humidity;BME280_pressure;Samples;Min_cycle;Max_cycle;Signal;HPM_P1;HPM_P2
2022/06/19 00:01:59;;;;;;;11.32;6.28;;;;;;;18.72;75.98;100728.81;6213098;23;20009;-70
2022/06/19 00:04:25;;;;;;;12.60;5.95;;;;;;;18.65;76.34;100727.84;6212832;23;20099;-70
2022/06/19 00:06:50;;;;;;;9.00;5.50;;;;;;;18.63;76.39;100716.31;6212791;23;20032;-70
2022/06/19 00:09:16;;;;;;;14.20;6.53;;;;;;;18.59;76.76;100726.69;6212962;23;20566;-70
2022/06/19 00:11:41;;;;;;;14.02;5.90;;;;;;;18.57;76.92;100719.72;6212858;23;20307;-70
2022/06/19 00:14:08;;;;;;;13.38;6.00;;;;;;;18.55;76.99;100716.34;6212932;23;20008;-71
2022/06/19 00:16:34;;;;;;;12.20;6.32;;;;;;;18.55;76.79;100732.63;6212795;23;20385;-70
2022/06/19 00:19:00;;;;;;;11.95;6.07;;;;;;;18.51;77.04;100729.41;6212636;23;20004;-70
2022/06/19 00:21:25;;;;;;;14.80;5.63;;;;;;;18.37;76.99;100702.13;6185785;23;20031;-71
2022/06/19 00:23:51;;;;;;;9.88;5.63;;;;;;;18.36;77.04;100706.75;6212900;23;20134;-70
2022/06/19 00:26:17;;;;;;;10.18;5.18;;;;;;;18.43;77.34;100718.59;6212781;23;20402;-70
2022/06/19 00:28:44;;;;;;;12.38;5.82;;;;;;;18.42;77.62;100727.78;6212532;23;20005;-70
2022/06/19 00:31:10;;;;;;;13.95;5.75;;;;;;;18.38;77.61;100717.44;6211825;23;20004;-70
2022/06/19 00:33:36;;;;;;;11.02;5.75;;;;;;;18.35;77.56;100724.03;6212353;23;20110;-70
2022/06/19 00:36:03;;;;;;;14.20;6.07;;;;;;;18.36;78.00;100720.31;6212288;23;20004;-70
2022/06/19 00:38:29;;;;;;;13.98;6.13;;;;;;;18.26;78.27;100702.50;6212313;23;20008;-71
2022/06/19 00:40:56;;;;;;;9.48;5.80;;;;;;;18.30;78.17;100717.41;6212495;23;20388;-70
2022/06/19 00:43:22;;;;;;;13.65;6.07;;;;;;;18.20;77.82;100711.31;6212452;23;20075;-70
2022/06/19 00:45:51;;;;;;;10.73;6.70;;;;;;;18.18;78.06;100706.06;6212530;23;20032;-70
2022/06/19 00:48:37;;;;;;;11.35;5.60;;;;;;;18.21;78.04;100722.00;6185511;23;20426;-70
2022/06/19 00:51:05;;;;;;;12.73;6.32;;;;;;;18.01;77.64;100691.69;6211559;23;20453;-70
2022/06/19 00:53:57;;;;;;;13.10;5.82;;;;;;;18.12;77.86;100716.78;6212311;23;20453;-70
2022/06/19 00:56:25;;;;;;;10.75;5.97;;;;;;;18.09;77.55;100721.53;6206526;23;20024;-71
2022/06/19 00:58:52;;;;;;;10.32;5.93;;;;;;;18.06;77.55;100726.47;6212813;23;20055;-71
2022/06/19 01:01:21;;;;;;;10.00;5.63;;;;;;;18.02;78.19;100723.25;6212320;23;20005;-71
2022/06/19 01:04:03;;;;;;;11.85;6.28;;;;;;;17.90;78.52;100705.63;6212178;23;20038;-71
2022/06/19 01:06:29;;;;;;;11.35;5.93;;;;;;;17.96;78.86;100712.25;6185399;23;20015;-71
2022/06/19 01:08:56;;;;;;;10.73;6.07;;;;;;;17.83;78.65;100693.75;6211933;23;20040;-71
2022/06/19 01:11:24;;;;;;;9.45;6.05;;;;;;;17.83;78.89;100695.63;6211882;23;20013;-71
2022/06/19 01:13:51;;;;;;;9.80;5.63;;;;;;;17.81;79.09;100697.69;6212091;23;20005;-71
2022/06/19 01:16:17;;;;;;;11.55;6.38;;;;;;;17.79;78.99;100708.69;6211935;23;20084;-70
2022/06/19 01:18:42;;;;;;;10.90;5.90;;;;;;;17.75;79.08;100706.50;6212060;23;20035;-71
2022/06/19 01:21:22;;;;;;;10.88;6.38;;;;;;;17.73;79.53;100708.53;6211820;23;20004;-70
2022/06/19 01:24:16;;;;;;;13.40;6.15;;;;;;;17.70;79.75;100707.00;6211970;23;20012;-71
2022/06/19 01:26:45;;;;;;;9.20;6.00;;;;;;;17.69;80.42;100709.88;6211775;23;20418;-71
2022/06/19 01:29:12;;;;;;;11.13;6.53;;;;;;;17.66;80.37;100702.09;6211781;23;20008;-70
2022/06/19 01:31:43;;;;;;;13.13;6.43;;;;;;;17.65;80.37;100713.97;6185209;23;20728;-71
2022/06/19 01:34:28;;;;;;;11.38;5.65;;;;;;;17.62;80.32;100700.75;6211936;23;20315;-71
2022/06/19 01:37:08;;;;;;;10.05;5.88;;;;;;;17.60;80.37;100705.47;6211838;23;20005;-71
2022/06/19 01:39:54;;;;;;;7.22;5.88;;;;;;;17.55;80.96;100703.31;6211783;23;20095;-71
2022/06/19 01:42:20;;;;;;;9.90;5.35;;;;;;;17.52;80.81;100700.06;6184735;23;20015;-72
2022/06/19 01:44:47;;;;;;;7.97;5.85;;;;;;;17.49;81.01;100701.25;6211732;23;20012;-70
2022/06/19 01:47:14;;;;;;;9.30;6.00;;;;;;;17.45;81.39;100699.88;6211721;23;20004;-71
2022/06/19 01:49:44;;;;;;;11.82;7.07;;;;;;;17.37;81.19;100685.44;6211521;23;20469;-70
2022/06/19 01:52:09;;;;;;;9.45;6.28;;;;;;;17.39;81.94;100692.41;6211519;23;20020;-70
2022/06/19 01:54:46;;;;;;;10.25;6.10;;;;;;;17.41;82.31;100689.53;6211567;23;20008;-70
2022/06/19 01:57:13;;;;;;;10.93;6.10;;;;;;;17.38;82.13;100696.13;6211595;23;20505;-70
2022/06/19 01:59:40;;;;;;;10.48;5.55;;;;;;;17.29;82.40;100677.31;6211463;23;20016;-70
2022/06/19 02:02:09;;;;;;;12.85;6.30;;;;;;;17.32;81.91;100690.53;6211499;23;20338;-71
2022/06/19 02:04:35;;;;;;;11.05;6.25;;;;;;;17.20;81.85;100673.75;6211682;23;20318;-71
2022/06/19 02:07:05;;;;;;;9.40;5.72;;;;;;;17.30;81.73;100689.84;6211605;23;20011;-70
2022/06/19 02:09:33;;;;;;;10.80;5.82;;;;;;;17.24;81.52;100687.81;6184698;23;20012;-71
2022/06/19 02:11:59;;;;;;;10.32;5.75;;;;;;;17.23;81.26;100689.69;6211265;23;20461;-71
2022/06/19 02:14:24;;;;;;;7.75;6.03;;;;;;;17.23;81.58;100691.56;6211744;23;20008;-70
2022/06/19 02:16:51;;;;;;;7.70;5.15;;;;;;;17.22;81.60;100689.88;6211478;23;20082;-71
2022/06/19 02:19:18;;;;;;;6.63;5.38;;;;;;;17.20;81.83;100689.16;6185371;23;20095;-71
2022/06/19 02:21:53;;;;;;;7.95;5.60;;;;;;;17.16;82.10;100683.22;6185094;23;20051;-70
2022/06/19 02:24:20;;;;;;;9.85;5.82;;;;;;;17.09;81.88;100668.66;6211962;23;20047;-70
2022/06/19 02:26:48;;;;;;;10.38;5.43;;;;;;;17.09;82.03;100676.78;6211947;23;20011;-71
2022/06/19 02:29:16;;;;;;;8.75;5.82;;;;;;;16.97;82.55;100661.88;6211956;23;20016;-70
2022/06/19 02:31:44;;;;;;;8.57;6.10;;;;;;;17.04;82.96;100679.16;6211548;23;20011;-71
2022/06/19 02:34:16;;;;;;;9.45;6.10;;;;;;;16.99;83.56;100678.81;6185025;23;20004;-70
2022/06/19 02:36:52;;;;;;;8.23;5.35;;;;;;;16.94;83.55;100683.91;6208896;23;20434;-71
2022/06/19 02:39:28;;;;;;;11.55;5.50;;;;;;;16.94;83.87;100681.19;6211344;23;20023;-71
2022/06/19 02:42:27;;;;;;;11.68;5.55;;;;;;;16.94;83.62;100680.31;6211634;23;19997;-71
2022/06/19 02:44:58;;;;;;;11.40;6.05;;;;;;;16.84;83.56;100668.78;6211355;23;20000;-71
2022/06/19 02:47:26;;;;;;;9.25;5.82;;;;;;;16.90;83.68;100685.22;6211239;23;20004;-70
2022/06/19 02:49:53;;;;;;;11.40;5.57;;;;;;;16.88;83.74;100683.69;6211262;23;20493;-71
2022/06/19 02:52:18;;;;;;;9.55;5.40;;;;;;;16.87;84.50;100687.44;6211205;23;20469;-71
2022/06/19 02:54:44;;;;;;;13.40;5.80;;;;;;;16.86;84.44;100683.84;6212847;23;20004;-71
2022/06/19 02:57:11;;;;;;;9.25;6.05;;;;;;;16.85;84.45;100692.16;6213385;23;20005;-70
2022/06/19 02:59:37;;;;;;;8.52;5.95;;;;;;;16.85;84.17;100681.31;6213150;23;20047;-70
2022/06/19 03:02:04;;;;;;;8.00;5.38;;;;;;;16.86;84.43;100683.03;6186338;23;20306;-71
2022/06/19 03:04:36;;;;;;;8.60;5.47;;;;;;;16.84;84.29;100690.47;6213242;23;20007;-71
2022/06/19 03:07:02;;;;;;;11.10;5.38;;;;;;;16.81;84.71;100678.09;6213313;23;20005;-71
2022/06/19 03:09:27;;;;;;;11.50;6.35;;;;;;;16.88;85.58;100697.25;6213362;23;20040;-71
2022/06/19 03:11:53;;;;;;;16.75;6.70;;;;;;;16.90;86.07;100689.81;6212979;23;20036;-71
2022/06/19 03:14:18;;;;;;;13.82;5.78;;;;;;;16.84;85.98;100680.50;6186195;23;20211;-71
2022/06/19 03:16:45;;;;;;;9.85;6.25;;;;;;;16.85;85.92;100678.59;6213164;23;20008;-71
2022/06/19 03:19:12;;;;;;;8.10;5.78;;;;;;;16.91;85.89;100691.50;6213033;23;20008;-71
2022/06/19 03:21:37;;;;;;;15.95;6.95;;;;;;;16.95;86.11;100693.72;6213208;23;20001;-71
2022/06/19 03:24:03;;;;;;;12.88;5.68;;;;;;;16.95;86.17;100690.13;6212894;23;20054;-71
2022/06/19 03:26:30;;;;;;;14.13;6.55;;;;;;;16.98;85.82;100682.53;6213066;23;20015;-72
2022/06/19 03:28:57;;;;;;;14.18;6.43;;;;;;;17.05;86.51;100691.69;6186294;23;20020;-71
2022/06/19 03:31:24;;;;;;;11.52;6.60;;;;;;;17.09;86.20;100679.50;6212881;23;20016;-71
2022/06/19 03:33:50;;;;;;;9.90;6.22;;;;;;;17.21;86.37;100686.28;6212926;23;19997;-71
2022/06/19 03:36:16;;;;;;;15.20;6.22;;;;;;;17.31;86.04;100683.41;6213123;23;20008;-71
2022/06/19 03:38:42;;;;;;;11.15;7.10;;;;;;;17.44;86.11;100686.50;6212907;23;20083;-71
2022/06/19 03:41:07;;;;;;;10.25;6.55;;;;;;;17.47;85.72;100667.16;6212810;23;20485;-71
2022/06/19 03:43:33;;;;;;;12.25;6.47;;;;;;;17.69;85.83;100694.47;6212809;23;20083;-72
2022/06/19 03:46:12;;;;;;;14.73;5.80;;;;;;;17.81;85.28;100682.25;6213025;23;20004;-72
2022/06/19 03:48:40;;;;;;;9.27;5.80;;;;;;;17.95;85.19;100688.81;6210204;23;20011;-71
2022/06/19 03:51:06;;;;;;;10.30;6.35;;;;;;;18.08;84.59;100680.97;6212595;23;20000;-71
2022/06/19 03:53:31;;;;;;;8.40;5.18;;;;;;;18.22;84.76;100674.00;6211035;23;20311;-71
2022/06/19 03:55:57;;;;;;;10.18;6.03;;;;;;;18.38;84.16;100676.69;6213239;23;20389;-72
2022/06/19 03:58:23;;;;;;;8.15;5.97;;;;;;;18.54;83.90;100682.88;6213234;23;20012;-71
2022/06/19 04:00:48;;;;;;;11.20;6.20;;;;;;;18.69;83.91;100674.81;6212752;23;20008;-72
2022/06/19 04:03:14;;;;;;;10.10;5.90;;;;;;;18.84;84.04;100668.47;6212523;23;20079;-71
2022/06/19 04:05:39;;;;;;;10.25;5.75;;;;;;;19.01;83.93;100674.63;6211989;23;20075;-72
2022/06/19 04:08:05;;;;;;;10.73;6.50;;;;;;;19.17;83.51;100672.66;6212576;23;20414;-71
2022/06/19 04:10:30;;;;;;;10.13;6.28;;;;;;;19.35;83.10;100670.50;6212474;23;20013;-71
2022/06/19 04:12:56;;;;;;;11.43;6.50;;;;;;;19.54;82.09;100675.44;6212659;23;20057;-72
2022/06/19 04:15:22;;;;;;;17.75;7.47;;;;;;;19.72;81.70;100678.69;6212681;23;20043;-71
2022/06/19 04:17:47;;;;;;;15.57;6.75;;;;;;;19.85;79.90;100670.72;6212464;23;20005;-71
2022/06/19 04:20:13;;;;;;;20.13;6.65;;;;;;;20.04;79.12;100672.06;6212576;23;20038;-71
2022/06/19 04:22:39;;;;;;;13.25;6.00;;;;;;;20.18;77.25;100677.53;6212613;23;20422;-72
2022/06/19 04:25:07;;;;;;;9.95;5.80;;;;;;;20.34;74.27;100678.41;6212477;23;20453;-71
2022/06/19 04:27:34;;;;;;;6.78;5.00;;;;;;;20.54;73.07;100666.69;6212520;23;20434;-71
2022/06/19 04:30:01;;;;;;;12.13;5.90;;;;;;;20.74;72.29;100672.41;6212525;23;20011;-72
2022/06/19 04:32:26;;;;;;;10.82;6.03;;;;;;;20.88;70.94;100669.66;6212481;23;20028;-72
2022/06/19 04:34:51;;;;;;;7.18;5.63;;;;;;;21.04;69.06;100668.59;6212570;23;20490;-72
2022/06/19 04:37:17;;;;;;;8.80;4.85;;;;;;;21.14;68.27;100658.22;6212175;23;20009;-72
2022/06/19 04:39:42;;;;;;;9.63;5.82;;;;;;;21.31;68.48;100676.03;6212248;23;20013;-72
2022/06/19 04:42:08;;;;;;;5.75;5.13;;;;;;;21.43;68.33;100669.84;6212384;23;20055;-72
2022/06/19 04:44:33;;;;;;;7.20;5.80;;;;;;;21.56;67.97;100674.56;6212552;23;20019;-72
2022/06/19 04:46:59;;;;;;;11.57;5.53;;;;;;;21.70;67.39;100665.47;6212612;23;20054;-72
2022/06/19 04:49:24;;;;;;;13.90;6.13;;;;;;;21.78;67.25;100666.19;6212445;23;20008;-72
2022/06/19 04:51:50;;;;;;;9.63;5.68;;;;;;;21.93;66.75;100666.09;6212280;23;20323;-71
2022/06/19 04:54:15;;;;;;;7.93;5.50;;;;;;;22.04;66.03;100658.19;6212413;23;20020;-72
2022/06/19 04:56:42;;;;;;;12.32;5.93;;;;;;;22.22;65.87;100661.22;6212327;23;20000;-72
2022/06/19 04:59:08;;;;;;;9.63;5.18;;;;;;;22.32;65.45;100648.03;6212433;23;20008;-72
2022/06/19 05:01:36;;;;;;;6.97;5.35;;;;;;;22.55;65.14;100658.72;6212346;23;20115;-72
2022/06/19 05:04:05;;;;;;;8.80;4.75;;;;;;;22.62;64.55;100648.63;6185501;23;20083;-72
2022/06/19 05:06:31;;;;;;;8.02;4.93;;;;;;;22.83;64.07;100645.75;6212168;23;20083;-72
2022/06/19 05:08:57;;;;;;;7.30;4.68;;;;;;;23.00;63.47;100646.22;6211991;23;20013;-72
2022/06/19 05:11:24;;;;;;;7.45;5.32;;;;;;;23.17;62.91;100650.25;6211976;23;20433;-72
2022/06/19 05:13:50;;;;;;;8.23;4.30;;;;;;;23.31;62.20;100654.75;6185459;23;20546;-72
2022/06/19 05:16:22;;;;;;;7.90;3.85;;;;;;;23.45;61.02;100662.78;6211667;23;20008;-72
2022/06/19 05:18:49;;;;;;;5.28;4.25;;;;;;;23.60;60.43;100666.13;6211922;23;20465;-72
2022/06/19 05:21:15;;;;;;;5.47;4.15;;;;;;;23.74;59.77;100664.25;6211993;23;20000;-72
2022/06/19 05:23:44;;;;;;;6.38;3.83;;;;;;;23.91;59.09;100671.84;6211909;23;20520;-72
2022/06/19 05:26:17;;;;;;;5.95;4.35;;;;;;;24.05;58.45;100662.56;6185455;23;20005;-72
2022/06/19 05:28:44;;;;;;;6.45;4.32;;;;;;;24.16;58.22;100670.16;6212292;23;20002;-72
2022/06/19 05:31:10;;;;;;;6.43;3.65;;;;;;;24.27;58.12;100663.16;6211986;23;20075;-71
2022/06/19 05:33:35;;;;;;;5.93;3.97;;;;;;;24.42;57.14;100661.00;6185536;23;20014;-72
2022/06/19 05:36:01;;;;;;;5.97;3.50;;;;;;;24.61;55.32;100665.59;6184979;23;20448;-72
2022/06/19 05:38:28;;;;;;;4.65;2.80;;;;;;;24.77;53.40;100670.63;6211747;23;20609;-72
2022/06/19 05:40:55;;;;;;;5.07;3.05;;;;;;;24.95;52.62;100672.66;6211747;23;20030;-72
2022/06/19 05:43:22;;;;;;;4.28;3.13;;;;;;;24.99;51.83;100663.72;6211774;23;20005;-72
2022/06/19 05:45:51;;;;;;;4.18;2.83;;;;;;;25.15;51.88;100671.44;6211837;23;20083;-72
2022/06/19 05:48:17;;;;;;;3.20;2.25;;;;;;;25.26;49.96;100676.25;6211538;23;20009;-72
2022/06/19 05:50:43;;;;;;;4.70;2.75;;;;;;;25.47;49.57;100672.34;6211628;23;20677;-72
2022/06/19 05:53:08;;;;;;;4.50;2.67;;;;;;;25.58;50.08;100669.72;6211515;23;20031;-72
2022/06/19 05:55:34;;;;;;;4.57;2.65;;;;;;;25.75;49.31;100679.09;6211916;23;20032;-72
2022/06/19 05:57:59;;;;;;;4.65;2.55;;;;;;;25.84;49.06;100655.75;6211599;23;20020;-72
2022/06/19 06:00:24;;;;;;;4.88;2.50;;;;;;;26.10;48.75;100671.19;6211630;23;20020;-72
2022/06/19 06:02:50;;;;;;;4.47;2.97;;;;;;;26.25;47.96;100663.41;6211349;23;20016;-72
2022/06/19 06:05:16;;;;;;;2.65;2.45;;;;;;;26.48;47.09;100671.84;6211629;23;20031;-72
2022/06/19 06:07:41;;;;;;;5.57;2.30;;;;;;;26.64;46.27;100678.66;6211614;23;20063;-73
2022/06/19 06:10:09;;;;;;;4.03;2.53;;;;;;;26.79;45.48;100679.94;6211662;23;20332;-72
2022/06/19 06:12:34;;;;;;;3.95;2.33;;;;;;;26.93;44.48;100670.47;6211932;23;20008;-72
2022/06/19 06:14:59;;;;;;;2.22;2.03;;;;;;;27.09;43.25;100668.97;6211498;23;20563;-72
2022/06/19 06:17:25;;;;;;;5.18;2.33;;;;;;;27.16;43.23;100661.44;6211355;23;20404;-72
2022/06/19 06:19:50;;;;;;;2.75;2.50;;;;;;;27.38;42.49;100673.66;6211302;23;20008;-72
2022/06/19 06:22:16;;;;;;;5.15;2.80;;;;;;;27.41;43.21;100670.44;6211770;23;20104;-72
2022/06/19 06:24:41;;;;;;;5.75;2.50;;;;;;;27.43;42.47;100668.25;6211828;23;20001;-72
2022/06/19 06:27:07;;;;;;;3.70;2.75;;;;;;;27.49;41.52;100659.91;6211951;23;20016;-72
2022/06/19 06:29:33;;;;;;;5.15;2.75;;;;;;;27.65;41.53;100675.75;6185010;23;20004;-72
2022/06/19 06:31:58;;;;;;;3.67;2.15;;;;;;;27.73;41.95;100669.88;6211494;23;20620;-73
2022/06/19 06:34:24;;;;;;;6.97;2.90;;;;;;;27.84;41.82;100660.81;6211568;23;20004;-72
2022/06/19 06:36:50;;;;;;;5.53;2.92;;;;;;;27.97;41.69;100663.34;6211633;23;20031;-72
2022/06/19 06:39:15;;;;;;;5.25;2.30;;;;;;;28.14;41.51;100668.97;6211451;23;20422;-72
2022/06/19 06:41:41;;;;;;;3.05;2.65;;;;;;;28.28;40.71;100660.22;6211407;23;20004;-72
2022/06/19 06:44:12;;;;;;;6.75;2.55;;;;;;;28.45;40.15;100669.50;6211563;23;20008;-72
2022/06/19 06:46:38;;;;;;;3.75;2.97;;;;;;;28.55;39.55;100666.09;6184737;23;20314;-72
2022/06/19 06:49:04;;;;;;;6.68;2.67;;;;;;;28.68;39.18;100664.97;6211380;23;20008;-72
2022/06/19 06:51:31;;;;;;;3.50;2.65;;;;;;;28.75;39.05;100669.28;6211296;23;20036;-72
2022/06/19 06:53:57;;;;;;;5.55;3.00;;;;;;;28.90;39.03;100674.28;6179665;23;20048;-72
2022/06/19 06:56:24;;;;;;;5.10;2.95;;;;;;;29.03;38.44;100674.00;6181293;23;20059;-73
2022/06/19 06:58:50;;;;;;;4.20;2.47;;;;;;;29.15;38.35;100674.81;6181484;23;20035;-72
2022/06/19 07:01:20;;;;;;;3.40;2.75;;;;;;;29.26;37.89;100674.78;6181390;23;20422;-70
2022/06/19 07:03:49;;;;;;;4.60;2.83;;;;;;;29.37;37.43;100673.84;6181609;23;20493;-71
2022/06/19 07:06:14;;;;;;;2.80;2.15;;;;;;;29.48;36.66;100680.41;6181766;23;20072;-70
2022/06/19 07:08:40;;;;;;;5.78;2.38;;;;;;;29.61;36.62;100677.38;6179881;23;20009;-71
2022/06/19 07:11:06;;;;;;;4.22;2.42;;;;;;;29.69;36.06;100669.50;6181318;23;20109;-70
2022/06/19 07:13:32;;;;;;;2.85;2.20;;;;;;;29.82;35.46;100665.59;6181340;23;20036;-72
2022/06/19 07:15:58;;;;;;;4.55;2.63;;;;;;;30.02;35.46;100674.19;6181093;23;20012;-70
2022/06/19 07:18:23;;;;;;;3.20;1.80;;;;;;;30.09;35.43;100672.09;6181437;23;20005;-70
2022/06/19 07:20:49;;;;;;;2.10;1.90;;;;;;;30.25;35.29;100672.09;6181288;23;20307;-70
2022/06/19 07:23:14;;;;;;;3.45;2.10;;;;;;;30.26;35.51;100659.94;6181391;23;20001;-71
2022/06/19 07:25:40;;;;;;;4.15;2.10;;;;;;;30.41;34.60;100671.22;6181552;23;20009;-70
2022/06/19 07:28:05;;;;;;;4.22;1.75;;;;;;;30.52;34.36;100680.50;6181512;23;20008;-71
2022/06/19 07:30:31;;;;;;;2.20;1.90;;;;;;;30.49;34.56;100668.00;6181234;23;20010;-71
2022/06/19 07:32:57;;;;;;;2.58;1.95;;;;;;;30.51;34.45;100665.00;6179736;23;20020;-70
2022/06/19 07:35:23;;;;;;;5.30;2.30;;;;;;;30.56;33.88;100659.50;6181513;23;20011;-70
2022/06/19 07:37:51;;;;;;;2.90;1.70;;;;;;;30.59;32.59;100665.38;6181262;23;20326;-71
2022/06/19 07:40:19;;;;;;;2.78;1.42;;;;;;;30.72;31.89;100660.56;6182067;23;20012;-70
2022/06/19 07:42:45;;;;;;;6.43;1.40;;;;;;;30.77;31.59;100655.94;6183036;23;20418;-70
2022/06/19 07:45:12;;;;;;;3.97;1.60;;;;;;;30.92;31.15;100649.75;6182854;23;20066;-71
2022/06/19 07:50:21;;;;;;;2.17;1.65;;;;;;;31.04;30.90;100651.28;6182593;23;20028;-71
2022/06/19 07:52:49;;;;;;;5.35;1.90;;;;;;;31.12;31.60;100647.22;6194703;23;20021;-70
2022/06/19 07:55:18;;;;;;;2.92;1.80;;;;;;;31.21;31.62;100645.66;6212799;23;20004;-70
2022/06/19 07:57:43;;;;;;;3.22;1.70;;;;;;;31.31;30.96;100646.63;6212876;23;20008;-70
2022/06/19 08:00:16;;;;;;;2.50;1.80;;;;;;;31.37;31.09;100637.22;6212817;23;20055;-70
2022/06/19 08:02:46;;;;;;;2.75;1.70;;;;;;;31.41;30.79;100643.94;6212947;23;20521;-70
2022/06/19 08:05:12;;;;;;;2.17;1.70;;;;;;;31.42;30.72;100636.44;6212955;23;20008;-70
2022/06/19 08:07:39;;;;;;;5.90;2.10;;;;;;;31.48;30.87;100639.03;6212645;23;20012;-71
2022/06/19 08:10:06;;;;;;;2.30;1.65;;;;;;;31.52;31.04;100640.16;6212346;23;20004;-71
2022/06/19 08:12:31;;;;;;;3.78;2.08;;;;;;;31.53;30.74;100618.81;6212669;23;20047;-71
2022/06/19 08:14:57;;;;;;;2.25;1.42;;;;;;;31.61;30.48;100630.25;6212576;23;20028;-71
2022/06/19 08:17:22;;;;;;;2.20;1.20;;;;;;;31.67;29.57;100631.97;6212476;23;20441;-71
2022/06/19 08:19:48;;;;;;;3.22;1.25;;;;;;;31.64;29.69;100618.63;6212463;23;20007;-71
2022/06/19 08:22:13;;;;;;;3.38;1.40;;;;;;;31.80;29.06;100627.91;6212454;23;20003;-71
2022/06/19 08:24:39;;;;;;;2.38;1.10;;;;;;;31.80;29.11;100617.69;6212662;23;20005;-71
2022/06/19 08:27:05;;;;;;;1.70;1.10;;;;;;;31.84;28.44;100618.81;6212291;23;20508;-71
2022/06/19 08:29:31;;;;;;;5.45;1.33;;;;;;;31.83;28.48;100606.06;6212544;23;20028;-71
2022/06/19 08:31:56;;;;;;;1.35;1.05;;;;;;;31.94;28.33;100612.50;6212380;23;20004;-71
2022/06/19 08:34:22;;;;;;;1.83;1.20;;;;;;;31.84;28.34;100602.16;6212528;23;20043;-71
2022/06/19 08:36:48;;;;;;;1.95;1.23;;;;;;;31.89;28.64;100613.28;6212688;23;20011;-71
2022/06/19 08:39:16;;;;;;;2.10;1.10;;;;;;;31.99;28.45;100615.31;6185652;23;20008;-71
2022/06/19 08:41:54;;;;;;;1.55;1.20;;;;;;;31.98;28.12;100608.09;6213034;23;20009;-71
2022/06/19 08:44:41;;;;;;;2.40;1.10;;;;;;;32.02;27.11;100610.03;6212592;23;20000;-71
2022/06/19 08:47:28;;;;;;;2.55;1.20;;;;;;;32.03;27.82;100611.75;6212440;23;20464;-71
2022/06/19 08:50:11;;;;;;;1.50;1.35;;;;;;;32.09;28.25;100619.00;6185189;23;20028;-72
2022/06/19 08:53:07;;;;;;;3.35;1.27;;;;;;;32.15;27.96;100612.34;6211580;23;20027;-71
2022/06/19 08:55:41;;;;;;;3.65;1.25;;;;;;;32.21;28.08;100605.72;6212331;23;20027;-71
2022/06/19 08:58:12;;;;;;;2.42;1.15;;;;;;;32.24;27.74;100607.16;6212153;23;20062;-71
2022/06/19 09:01:02;;;;;;;2.05;1.35;;;;;;;32.19;28.10;100601.56;6212170;23;20373;-71
2022/06/19 09:07:03;;;;;;;1.48;1.23;;;;;;;32.32;27.53;100588.03;6211986;23;20066;-71
2022/06/19 09:09:29;;;;;;;2.85;1.08;;;;;;;32.36;27.29;100591.97;6212199;23;20008;-71
2022/06/19 09:12:30;;;;;;;2.67;1.38;;;;;;;32.37;26.92;100585.28;6211943;23;20353;-71
2022/06/19 09:15:15;;;;;;;2.45;1.27;;;;;;;32.37;26.54;100576.97;6211940;23;20008;-71
2022/06/19 09:18:07;;;;;;;2.75;1.00;;;;;;;32.39;26.77;100569.19;6185465;23;20390;-72
2022/06/19 09:20:43;;;;;;;1.10;1.00;;;;;;;32.45;27.28;100570.06;6212024;23;20486;-71
2022/06/19 09:23:23;;;;;;;3.15;1.30;;;;;;;32.52;27.66;100568.69;6211721;23;20083;-72
2022/06/19 09:26:02;;;;;;;4.20;1.30;;;;;;;32.55;27.35;100565.38;6210422;23;20008;-72
2022/06/19 09:28:34;;;;;;;1.15;1.05;;;;;;;32.57;26.83;100548.44;6212053;23;20008;-71
2022/06/19 09:31:14;;;;;;;2.45;1.15;;;;;;;32.66;26.54;100560.69;6211635;23;20011;-71
2022/06/19 09:34:20;;;;;;;1.45;1.13;;;;;;;32.70;26.43;100567.38;6211993;23;20009;-71
2022/06/19 09:36:56;;;;;;;1.38;1.20;;;;;;;32.74;26.62;100565.72;6185244;23;20035;-72
2022/06/19 09:39:32;;;;;;;4.63;1.40;;;;;;;32.76;26.69;100565.44;6211734;23;20004;-72
2022/06/19 09:42:06;;;;;;;1.70;1.15;;;;;;;32.80;26.55;100555.44;6211847;23;20035;-72
2022/06/19 09:44:53;;;;;;;3.15;1.10;;;;;;;32.78;26.61;100560.47;6211721;23;20004;-72
2022/06/19 09:47:30;;;;;;;2.90;1.30;;;;;;;32.79;26.10;100548.22;6184972;23;20016;-71
2022/06/19 09:50:17;;;;;;;2.78;1.00;;;;;;;32.77;26.19;100548.50;6211454;23;20388;-72
2022/06/19 09:52:55;;;;;;;2.55;1.00;;;;;;;32.78;26.25;100549.34;6211606;23;20044;-71
2022/06/19 09:55:39;;;;;;;1.10;0.90;;;;;;;32.82;25.67;100547.66;6211911;23;20012;-72
2022/06/19 09:58:12;;;;;;;;;;;;;;;32.79;25.56;100551.00;6212679;23;20008;-72
2022/06/19 10:00:40;;;;;;;1.20;1.10;;;;;;;32.85;26.28;100547.97;6212047;23;19957;-71
2022/06/19 10:03:18;;;;;;;1.63;1.15;;;;;;;32.89;25.65;100543.56;6211762;23;20107;-71
2022/06/19 10:05:53;;;;;;;4.15;1.02;;;;;;;32.87;26.47;100550.47;6211682;23;20032;-72
2022/06/19 10:08:18;;;;;;;3.45;1.17;;;;;;;32.92;25.69;100547.72;6211707;23;20011;-72
2022/06/19 10:10:43;;;;;;;1.10;0.93;;;;;;;32.97;25.71;100544.94;6211811;23;20032;-71
2022/06/19 10:13:19;;;;;;;4.07;1.20;;;;;;;32.97;26.37;100537.44;6211903;23;20440;-72
2022/06/19 10:15:46;;;;;;;1.15;1.05;;;;;;;33.01;26.28;100534.97;6211556;23;20027;-71
2022/06/19 10:18:40;;;;;;;1.75;1.23;;;;;;;33.08;26.01;100532.75;6211595;23;20086;-72
2022/06/19 10:22:13;;;;;;;1.60;0.90;;;;;;;33.15;26.00;100534.13;6199602;23;20019;-72
2022/06/19 10:24:51;;;;;;;3.40;0.90;;;;;;;33.21;25.10;100526.63;6211212;23;20438;-72
2022/06/19 10:27:17;;;;;;;1.08;0.93;;;;;;;33.18;25.21;100525.25;6200827;23;20438;-71
2022/06/19 10:29:57;;;;;;;2.45;1.00;;;;;;;33.15;25.72;100527.72;6211630;23;20055;-71
2022/06/19 10:32:41;;;;;;;3.15;1.02;;;;;;;33.16;25.22;100515.47;6211735;23;20094;-71
2022/06/19 10:35:25;;;;;;;2.40;1.00;;;;;;;33.15;25.07;100520.22;6211342;23;20015;-72
2022/06/19 10:38:12;;;;;;;1.58;0.93;;;;;;;33.12;25.79;100514.38;6211418;23;20016;-71
2022/06/19 10:40:59;;;;;;;3.58;1.00;;;;;;;33.15;26.18;100513.81;6211553;23;20334;-71
2022/06/19 10:43:42;;;;;;;1.13;1.02;;;;;;;33.19;25.57;100506.59;6211254;23;20016;-71
2022/06/19 10:46:11;;;;;;;5.20;1.15;;;;;;;33.23;25.46;100496.56;6211395;23;20012;-71
2022/06/19 10:49:18;;;;;;;1.50;1.00;;;;;;;33.22;25.59;100501.31;6184678;23;20013;-71
2022/06/19 10:51:53;;;;;;;1.63;1.05;;;;;;;33.21;25.19;100499.66;6211308;23;20035;-71
2022/06/19 10:54:34;;;;;;;1.98;1.00;;;;;;;33.16;24.61;100476.56;6211297;23;20325;-71
2022/06/19 10:57:30;;;;;;;1.17;0.80;;;;;;;33.18;24.72;100489.09;6184536;23;20004;-71
2022/06/19 10:59:56;;;;;;;2.05;0.90;;;;;;;33.14;25.21;100484.38;6211074;23;20405;-71
2022/06/19 11:05:35;;;;;;;1.80;1.15;;;;;;;33.18;25.48;100480.75;6211071;23;20472;-71
2022/06/19 11:08:01;;;;;;;2.67;1.38;;;;;;;33.12;25.48;100469.88;6184424;23;20343;-72
2022/06/19 11:10:43;;;;;;;2.65;0.95;;;;;;;33.14;25.08;100465.72;6210964;23;20000;-71
2022/06/19 11:13:09;;;;;;;3.42;1.00;;;;;;;33.10;24.89;100463.75;6211312;23;20013;-71
2022/06/19 11:15:40;;;;;;;1.80;0.82;;;;;;;33.04;25.50;100462.94;6212181;23;20008;-71
2022/06/19 11:18:22;;;;;;;2.80;1.00;;;;;;;33.01;25.33;100455.16;6213019;23;20005;-72
2022/06/19 11:20:57;;;;;;;0.80;0.80;;;;;;;33.03;25.62;100460.44;6213025;23;20004;-71
2022/06/19 11:23:28;;;;;;;1.92;0.80;;;;;;;33.01;25.02;100455.16;6212810;23;20011;-72
2022/06/19 11:26:13;;;;;;;0.80;0.80;;;;;;;32.95;25.08;100447.09;6186140;23;20005;-71
2022/06/19 11:28:47;;;;;;;1.20;1.00;;;;;;;32.95;24.81;100436.84;6212858;23;20001;-71
2022/06/19 11:31:34;;;;;;;1.73;0.70;;;;;;;32.95;25.35;100447.94;6212931;23;19996;-71
2022/06/19 11:37:13;;;;;;;2.38;0.90;;;;;;;32.96;25.40;100440.44;6212792;23;20524;-72
2022/06/19 11:40:05;;;;;;;1.88;0.93;;;;;;;32.98;24.55;100444.59;6213009;23;20008;-72
2022/06/19 11:42:33;;;;;;;2.28;1.10;;;;;;;32.94;24.60;100443.47;6200509;23;20111;-71
2022/06/19 11:45:20;;;;;;;1.67;1.20;;;;;;;32.91;25.12;100438.47;6213105;23;20459;-72
2022/06/19 11:47:46;;;;;;;1.48;1.20;;;;;;;32.89;24.95;100435.16;6186515;23;20023;-71
2022/06/19 11:50:11;;;;;;;1.45;0.80;;;;;;;32.90;24.86;100430.41;6212908;23;20012;-71
2022/06/19 11:52:39;;;;;;;0.85;0.85;;;;;;;32.89;24.52;100425.97;6212657;23;20056;-71